Varese-Venegono Airport

LILN · Lombardy, 意大利

罗盘
风向 的 风向 的 风向 到 风向 040° Varese-Venegono Airport 17/35
风: 3 kt, 1 beaufort

2 kt

2 kt
改变
0 ft 1.000 2.000 3.000 4.000 5.000
Cloud Cloud
FEW 3.000
Cloud Cloud Cloud Cloud Cloud Cloud
BKN 4.000
METAR LIMC 301820Z 04003KT 340V100 9999 -TSRA FEW030CB BKN040 17/15 Q1004 TEMPO 3000 +TSRA

METAR Varese-Venegono Airport - LILN

Varese-Venegono Airport是,意大利中的中型机场。 该机场位于纬度45,74220和经度8,88823。 该机场有一条跑道: 17/35. 本场的ICAO机场代码为LILN。 机场在Milano FIR中。

该航空气象观测是针对Malpensa International Airport在2024年5月30日 20:20, 当地时间进行的。

机场观察

风向为040°,速度为3 kt。 风向在340°和100°之间变化。

可见度为10 km 或者更多。

有几云 积雨云在3.000 ft的高度 和 碎云在4.000 ft的高度。 破损或更高的上限为4.000 ft。

当前天气为光 雷暴 雨。 温度和风寒是17 °C。 露点为15 °C,相对湿度为88%。 海平面上的气压为1004 hPa (QNH)。

发展趋势

  • 暂时的

    可变方向的风很小或没有。 可见性变为3 km。 重大天气:倾盆大 雷暴 雨。

白天

今天,太阳从05:38升起,在21:05降落。 这适用于Varese-Venegono Airport,世界夏令时可能有所不同。 当地时间与世界标准时间之间的时差为+2 小时。 夏令时目前正在进行中。

公司介绍

在这个机场,你可以找到飞行学校。 本场上唯一已知的公司是Aeroclub di Varese。

体会

到Vliegles.nl去找飞行课程,跳伞和其他飞行体验。 浏览页面,了解Varese-Venegono Airport附近所有可用的活动。 你也可以使用搜索功能来寻找你所在地附近的特定飞行课程、跳伞或其他飞行体验。

跑道

Id 标题 侧风 逆风 侧风 %
17/35 173°-353° 2 kt 2 kt 73 %

逆风成分最大的方向会被突出显示,并用于横风计算。 这并不一定意味着这个方向在使用。

乌云

3.000 ft FEW 几云 积雨云
4.000 ft BKN 碎云

温度 & 天气

天气 光 雷暴 雨
温度 17 °C
露点 15 °C
相对湿度 88%
Kp-index 1 (0-9)

白天

日出
05:40
中午
13:22
日落
21:05 (26m)

小工具

你想在你的网站上有一个关于Varese-Venegono Airport的当前航空天气(METAR)的小部件吗?

显示HTML代码
报告变更